createdAt,value
2019-02-23T00:01:33.303Z,49.98
2019-02-23T00:04:41.469Z,50.23
2019-02-23T00:10:37.486Z,49.93
2019-02-23T00:13:10.209Z,49.51
2019-02-23T00:15:44.368Z,49.52
2019-02-23T00:18:16.221Z,49.60
2019-02-23T00:20:50.251Z,50.03
2019-02-23T00:23:27.660Z,49.84
2019-02-23T00:25:58.445Z,49.94
2019-02-23T00:28:30.152Z,49.69
2019-02-23T00:34:13.984Z,49.84
2019-02-23T00:37:22.110Z,49.96
2019-02-23T00:40:04.283Z,50.33
2019-02-23T00:42:53.736Z,50.33
2019-02-23T00:48:54.768Z,49.98
2019-02-23T00:51:25.314Z,50.11
2019-02-23T00:54:34.312Z,50.02
2019-02-23T00:57:23.452Z,50.01
2019-02-23T00:59:54.422Z,49.47
2019-02-23T01:08:38.460Z,49.04
2019-02-23T01:11:10.461Z,48.65
2019-02-23T01:13:43.613Z,48.68
2019-02-23T01:16:15.125Z,48.29
2019-02-23T01:18:45.908Z,48.03
2019-02-23T01:21:17.451Z,48.00
2019-02-23T01:24:06.839Z,47.63
2019-02-23T01:26:56.959Z,47.13
2019-02-23T01:29:58.817Z,47.46
2019-02-23T01:35:42.982Z,46.96
2019-02-23T01:38:15.690Z,47.27
2019-02-23T01:40:48.678Z,47.25
2019-02-23T01:43:19.535Z,47.12
2019-02-23T01:45:50.229Z,46.86
2019-02-23T01:48:21.840Z,46.78
2019-02-23T01:51:11.531Z,47.27
2019-02-23T01:53:41.892Z,47.48
2019-02-23T01:59:04.141Z,46.88
2019-02-23T02:01:54.850Z,47.33
2019-02-23T02:04:26.173Z,47.52
2019-02-23T02:07:15.510Z,47.16
2019-02-23T02:09:46.516Z,47.84
2019-02-23T02:12:38.204Z,47.46
2019-02-23T02:15:29.350Z,47.14
2019-02-23T02:18:12.681Z,46.93
2019-02-23T02:20:45.838Z,46.93
2019-02-23T02:25:58.838Z,46.23
2019-02-23T02:28:32.582Z,46.76
2019-02-23T02:31:22.540Z,46.63
2019-02-23T02:34:15.214Z,46.70
2019-02-23T02:37:16.881Z,46.54
2019-02-23T02:39:37.509Z,46.56
2019-02-23T02:42:27.338Z,47.06
2019-02-23T02:44:57.336Z,47.00
2019-02-23T02:47:28.218Z,46.79
2019-02-23T02:53:02.573Z,46.21
2019-02-23T02:55:33.194Z,46.21
2019-02-23T02:58:03.938Z,46.30
2019-02-23T03:00:54.621Z,46.58
2019-02-23T03:03:26.411Z,46.46
2019-02-23T03:05:59.213Z,46.30
2019-02-23T03:08:49.180Z,46.69
2019-02-23T03:11:20.346Z,46.40
2019-02-23T03:14:09.428Z,46.33
2019-02-23T03:16:40.531Z,46.33
2019-02-23T03:19:11.159Z,46.04
2019-02-23T03:22:15.077Z,46.34
2019-02-23T03:27:35.197Z,46.67
2019-02-23T03:30:09.395Z,46.47
2019-02-23T03:32:40.007Z,46.88
2019-02-23T03:35:15.298Z,47.21
2019-02-23T03:38:06.601Z,46.97
2019-02-23T03:41:09.037Z,47.03
2019-02-23T03:43:31.691Z,46.86
2019-02-23T03:46:21.519Z,47.14
2019-02-23T03:49:11.473Z,47.08
2019-02-23T03:52:01.312Z,46.97
2019-02-23T03:55:02.378Z,47.20
2019-02-23T03:57:33.428Z,47.23
2019-02-23T04:00:16.788Z,47.35
2019-02-23T04:02:56.263Z,47.49
2019-02-23T04:05:45.451Z,47.48
2019-02-23T04:08:38.045Z,47.78
2019-02-23T04:11:11.471Z,47.98
2019-02-23T04:13:43.511Z,48.04
2019-02-23T04:19:27.021Z,48.36
2019-02-23T04:21:57.462Z,48.28
2019-02-23T04:24:46.884Z,48.21
2019-02-23T04:27:17.883Z,47.98
2019-02-23T04:29:48.261Z,48.07
2019-02-23T04:32:38.421Z,47.99
2019-02-23T04:38:19.178Z,47.85
2019-02-23T04:46:43.300Z,47.96
2019-02-23T04:49:33.572Z,47.56
2019-02-23T04:52:05.217Z,47.44
2019-02-23T04:54:39.797Z,47.56
2019-02-23T04:57:10.560Z,47.46
2019-02-23T04:59:42.474Z,47.55
2019-02-23T05:02:34.090Z,47.73
2019-02-23T05:05:06.449Z,47.81
2019-02-23T05:07:39.023Z,47.65
2019-02-23T05:10:11.177Z,47.61
2019-02-23T05:12:42.900Z,47.57
2019-02-23T05:15:33.637Z,47.38
2019-02-23T05:21:29.282Z,47.20
2019-02-23T05:24:20.795Z,47.24
2019-02-23T05:26:54.903Z,47.17
2019-02-23T05:29:30.264Z,47.23
2019-02-23T05:32:00.849Z,47.24
2019-02-23T05:34:31.289Z,47.15
2019-02-23T05:37:01.970Z,47.05
2019-02-23T05:39:33.130Z,47.32
2019-02-23T05:42:23.098Z,47.64
2019-02-23T05:45:14.659Z,47.64
2019-02-23T05:47:47.127Z,47.74
2019-02-23T05:50:17.134Z,47.81
2019-02-23T05:53:07.621Z,47.83
2019-02-23T05:55:39.147Z,47.92
2019-02-23T05:58:28.848Z,47.75
2019-02-23T06:01:18.247Z,47.75
2019-02-23T06:03:49.481Z,47.73
2019-02-23T06:06:19.933Z,47.75
2019-02-23T06:09:17.038Z,47.79
2019-02-23T06:18:34.635Z,47.95
2019-02-23T06:23:50.109Z,47.90
2019-02-23T06:26:21.561Z,47.82
2019-02-23T06:29:11.741Z,47.96
2019-02-23T06:32:02.103Z,47.66
2019-02-23T06:34:53.094Z,47.57
2019-02-23T06:37:23.994Z,47.55
2019-02-23T06:39:54.844Z,47.71
2019-02-23T06:42:27.284Z,47.62
2019-02-23T06:44:58.079Z,47.45
2019-02-23T06:50:58.234Z,46.52
2019-02-23T06:56:24.441Z,45.21
2019-02-23T06:58:58.678Z,44.88
2019-02-23T07:01:50.919Z,44.72
2019-02-23T07:04:22.077Z,44.41
2019-02-23T07:06:52.800Z,44.33
2019-02-23T07:09:43.026Z,43.81
2019-02-23T07:12:35.736Z,43.83
2019-02-23T07:24:19.456Z,43.23
2019-02-23T07:26:51.725Z,43.01
2019-02-23T07:29:24.446Z,42.87
2019-02-23T07:31:55.614Z,43.03
2019-02-23T07:34:46.472Z,43.22
2019-02-23T07:37:17.709Z,43.22
2019-02-23T07:39:49.279Z,43.60
2019-02-23T07:42:38.702Z,43.35
2019-02-23T07:45:13.701Z,43.34
2019-02-23T07:47:56.938Z,42.96
2019-02-23T07:50:17.621Z,43.31
2019-02-23T07:53:32.911Z,43.16
2019-02-23T07:56:22.843Z,42.97
2019-02-23T07:59:28.145Z,42.53
2019-02-23T08:01:49.031Z,42.33
2019-02-23T08:04:38.622Z,42.81
2019-02-23T08:07:10.543Z,42.90
2019-02-23T08:12:50.618Z,42.94
2019-02-23T08:15:27.255Z,43.55
2019-02-23T08:18:03.327Z,43.37
2019-02-23T08:20:36.310Z,42.81
2019-02-23T08:24:04.374Z,42.66
2019-02-23T08:29:50.442Z,42.22
2019-02-23T08:35:47.425Z,41.50
2019-02-23T08:38:19.532Z,40.78
2019-02-23T08:40:51.280Z,41.03
2019-02-23T08:43:28.795Z,41.25
2019-02-23T08:49:12.316Z,40.44
2019-02-23T08:51:43.994Z,40.05
2019-02-23T08:54:15.554Z,40.54
2019-02-23T08:57:05.627Z,40.46
2019-02-23T08:59:57.349Z,40.32
2019-02-23T09:03:07.188Z,39.71
2019-02-23T09:06:15.039Z,39.51
2019-02-23T09:09:20.075Z,39.87
2019-02-23T09:12:11.689Z,40.05
2019-02-23T09:15:01.141Z,39.41
2019-02-23T09:17:51.239Z,38.80
2019-02-23T09:20:29.169Z,38.33
2019-02-23T09:23:13.835Z,38.19
2019-02-23T09:26:05.681Z,37.59
2019-02-23T09:28:55.706Z,37.59
2019-02-23T09:31:52.940Z,38.03
2019-02-23T09:34:42.967Z,37.12
2019-02-23T09:37:47.111Z,37.28
2019-02-23T09:40:09.537Z,36.97
2019-02-23T09:45:48.924Z,37.05
2019-02-23T09:48:49.830Z,36.69
2019-02-23T09:54:23.048Z,36.34
2019-02-23T10:02:58.679Z,35.00
2019-02-23T10:05:29.724Z,35.32
2019-02-23T10:08:02.477Z,34.41
2019-02-23T10:10:37.181Z,34.72
2019-02-23T10:13:09.371Z,34.22
2019-02-23T10:15:41.367Z,34.55
2019-02-23T10:18:15.364Z,34.06
2019-02-23T10:21:06.860Z,34.22
2019-02-23T10:23:38.585Z,34.08
2019-02-23T10:26:26.105Z,34.07
2019-02-23T10:28:45.301Z,33.58
2019-02-23T10:35:07.698Z,33.96
2019-02-23T10:37:51.229Z,33.65
2019-02-23T10:40:21.495Z,33.37
2019-02-23T10:46:02.694Z,33.32
2019-02-23T10:48:57.823Z,33.04
2019-02-23T10:54:59.398Z,32.88
2019-02-23T10:57:30.715Z,32.27
2019-02-23T11:03:05.012Z,32.30
2019-02-23T11:11:48.456Z,32.16
2019-02-23T11:14:57.715Z,31.86
2019-02-23T11:17:31.713Z,31.70
2019-02-23T11:22:55.772Z,31.15
2019-02-23T11:25:30.514Z,30.55
2019-02-23T11:28:19.722Z,30.80
2019-02-23T11:31:28.957Z,30.73
2019-02-23T11:34:18.725Z,30.72
2019-02-23T11:37:08.685Z,30.69
2019-02-23T11:39:41.419Z,30.43
2019-02-23T11:42:13.351Z,30.51
2019-02-23T11:45:03.001Z,30.54
2019-02-23T11:47:54.932Z,30.54
2019-02-23T11:50:44.812Z,30.17
2019-02-23T11:53:38.173Z,29.95
2019-02-23T11:56:15.343Z,29.89
2019-02-23T11:58:48.596Z,29.91
2019-02-23T12:01:38.594Z,29.79
2019-02-23T12:04:09.452Z,29.92
2019-02-23T12:09:29.664Z,29.44
2019-02-23T12:15:42.767Z,29.51
2019-02-23T12:18:33.161Z,29.56
2019-02-23T12:24:25.241Z,28.70
2019-02-23T12:27:19.346Z,28.86
2019-02-23T12:29:51.659Z,28.29
2019-02-23T12:32:25.360Z,28.40
2019-02-23T12:34:56.232Z,28.40
2019-02-23T12:37:29.700Z,27.47
2019-02-23T12:40:22.328Z,27.59
2019-02-23T12:46:23.674Z,27.21
2019-02-23T12:48:58.614Z,27.22
2019-02-23T12:51:30.492Z,27.28
2019-02-23T12:54:05.292Z,27.08
2019-02-23T13:00:09.632Z,26.96
2019-02-23T13:09:05.147Z,26.64
2019-02-23T13:18:05.964Z,23.62
2019-02-23T13:21:14.462Z,22.99
2019-02-23T13:24:28.244Z,23.23
2019-02-23T13:34:08.961Z,22.77
2019-02-23T13:37:18.259Z,23.18
2019-02-23T13:40:27.980Z,22.67
2019-02-23T13:43:32.208Z,22.73
2019-02-23T13:46:24.822Z,22.49
2019-02-23T13:49:34.236Z,22.53
2019-02-23T13:52:46.142Z,22.75
2019-02-23T13:56:06.760Z,22.95
2019-02-23T13:59:17.483Z,22.87
2019-02-23T14:02:19.158Z,22.91
2019-02-23T14:05:27.899Z,23.16
2019-02-23T14:08:37.564Z,23.07
2019-02-23T14:11:46.032Z,23.41
2019-02-23T14:14:54.464Z,22.60
2019-02-23T14:17:57.695Z,22.91
2019-02-23T14:21:06.057Z,22.78
2019-02-23T14:24:03.429Z,22.52
2019-02-23T14:27:12.382Z,22.55
2019-02-23T14:30:21.975Z,21.95
2019-02-23T14:36:50.240Z,22.63
2019-02-23T14:40:17.135Z,21.84
2019-02-23T14:43:19.025Z,21.56
2019-02-23T14:46:29.276Z,22.55
2019-02-23T14:49:40.664Z,22.02
2019-02-23T14:52:49.228Z,21.75
2019-02-23T14:55:57.759Z,21.89
2019-02-23T14:59:08.170Z,21.89
2019-02-23T15:02:23.170Z,22.93
2019-02-23T15:08:54.137Z,23.58
2019-02-23T15:12:02.703Z,24.04
2019-02-23T15:15:12.752Z,24.09
2019-02-23T15:25:19.995Z,24.30
2019-02-23T15:28:37.046Z,24.51
2019-02-23T15:31:35.411Z,24.70
2019-02-23T15:34:48.475Z,24.55
2019-02-23T15:37:59.063Z,24.44
2019-02-23T15:41:09.129Z,24.79
2019-02-23T15:44:03.045Z,25.22
2019-02-23T15:50:12.054Z,25.81
2019-02-23T15:53:03.660Z,25.72
2019-02-23T16:01:37.498Z,25.88
2019-02-23T16:04:08.859Z,25.95
2019-02-23T16:06:39.670Z,26.16
2019-02-23T16:09:10.548Z,26.14
2019-02-23T16:11:41.471Z,26.42
2019-02-23T16:14:13.365Z,26.71
2019-02-23T16:16:43.765Z,26.69
2019-02-23T16:19:18.235Z,26.65
2019-02-23T16:22:02.400Z,26.62
2019-02-23T16:24:41.647Z,26.67
2019-02-23T16:27:17.930Z,26.91
2019-02-23T16:30:12.100Z,27.07
2019-02-23T16:32:50.803Z,27.07
2019-02-23T16:35:55.452Z,27.11
2019-02-23T16:38:14.613Z,27.19
2019-02-23T16:41:24.052Z,27.26
2019-02-23T16:43:55.176Z,27.36
2019-02-23T16:46:46.547Z,27.78
2019-02-23T16:50:01.030Z,27.86
2019-02-23T16:52:51.340Z,28.19
2019-02-23T16:55:21.418Z,28.44
2019-02-23T16:58:13.020Z,28.68
2019-02-23T17:01:04.513Z,28.76
2019-02-23T17:03:56.671Z,28.83
2019-02-23T17:06:46.340Z,28.85
2019-02-23T17:09:28.153Z,29.01
2019-02-23T17:12:36.378Z,29.00
2019-02-23T17:18:10.678Z,29.23
2019-02-23T17:20:46.776Z,29.18
2019-02-23T17:23:22.952Z,28.86
2019-02-23T17:29:19.501Z,29.18
2019-02-23T17:32:11.402Z,29.25
2019-02-23T17:34:43.604Z,29.14
2019-02-23T17:37:13.789Z,29.14
2019-02-23T17:40:22.031Z,29.26
2019-02-23T17:43:14.707Z,29.46
2019-02-23T17:46:06.765Z,29.65
2019-02-23T17:48:57.046Z,29.74
2019-02-23T17:51:42.172Z,29.62
2019-02-23T17:54:45.797Z,29.78
2019-02-23T18:00:32.133Z,29.82
2019-02-23T18:03:35.307Z,29.70
2019-02-23T18:09:42.375Z,29.85
2019-02-23T18:12:27.426Z,29.93
2019-02-23T18:15:23.354Z,29.97
2019-02-23T18:18:00.636Z,30.14
2019-02-23T18:23:33.998Z,30.43
2019-02-23T18:26:07.040Z,30.68
2019-02-23T18:29:00.406Z,30.73
2019-02-23T18:35:00.461Z,30.93
2019-02-23T18:37:31.960Z,30.96
2019-02-23T18:40:24.721Z,31.03
2019-02-23T18:42:58.676Z,31.07
2019-02-23T18:45:30.042Z,30.93
2019-02-23T18:54:53.857Z,31.58
2019-02-23T19:06:31.453Z,32.43
2019-02-23T19:12:42.175Z,32.47
2019-02-23T19:15:34.134Z,32.54
2019-02-23T19:18:07.476Z,32.52
2019-02-23T19:20:49.906Z,32.50
2019-02-23T19:23:39.765Z,32.52
2019-02-23T19:26:12.452Z,32.36
2019-02-23T19:31:38.216Z,32.35
2019-02-23T19:34:10.048Z,32.59
2019-02-23T19:37:18.568Z,32.68
2019-02-23T19:39:51.745Z,32.61
2019-02-23T19:45:37.302Z,32.43
2019-02-23T19:48:44.128Z,31.98
2019-02-23T19:52:01.759Z,31.93
2019-02-23T19:54:16.023Z,31.82
2019-02-23T19:57:25.352Z,31.65
2019-02-23T20:03:38.953Z,31.37
2019-02-23T20:09:15.511Z,31.30
2019-02-23T20:11:46.355Z,31.14
2019-02-23T20:14:58.801Z,31.26
2019-02-23T20:17:37.664Z,31.32
2019-02-23T20:20:20.118Z,31.17
2019-02-23T20:22:56.864Z,30.95
2019-02-23T20:25:37.717Z,30.80
2019-02-23T20:28:11.842Z,30.87
2019-02-23T20:35:01.593Z,31.47
2019-02-23T20:37:59.136Z,30.89
2019-02-23T20:44:07.132Z,31.29
2019-02-23T20:53:29.632Z,31.67
2019-02-23T20:56:02.252Z,31.59
2019-02-23T21:01:57.379Z,31.17
2019-02-23T21:05:13.853Z,31.13
2019-02-23T21:08:23.647Z,30.99
2019-02-23T21:11:35.504Z,31.01
2019-02-23T21:17:32.579Z,31.36
2019-02-23T21:23:46.619Z,31.26
2019-02-23T21:27:12.855Z,31.28
2019-02-23T21:29:50.094Z,31.37
2019-02-23T21:36:09.238Z,30.62
2019-02-23T21:38:45.388Z,30.71
2019-02-23T21:41:21.398Z,30.68
2019-02-23T21:43:58.427Z,30.68
2019-02-23T21:46:49.142Z,30.65
2019-02-23T21:49:54.227Z,30.50
2019-02-23T21:53:18.748Z,30.61
2019-02-23T21:55:57.525Z,30.70
2019-02-23T21:58:31.337Z,30.78
2019-02-23T22:01:16.506Z,30.67
2019-02-23T22:04:12.504Z,30.69
2019-02-23T22:07:09.048Z,30.72
2019-02-23T22:12:51.793Z,30.68
2019-02-23T22:19:04.317Z,30.64
2019-02-23T22:24:54.781Z,30.82
2019-02-23T22:41:40.008Z,31.04
2019-02-23T22:50:37.697Z,31.17
2019-02-23T23:08:30.102Z,31.29
2019-02-23T23:11:02.589Z,31.28
2019-02-23T23:14:13.857Z,31.26
2019-02-23T23:20:16.875Z,31.30
2019-02-23T23:22:37.259Z,31.44
2019-02-23T23:31:48.188Z,31.78
2019-02-23T23:34:53.172Z,31.87
2019-02-23T23:38:31.509Z,31.98
2019-02-23T23:41:44.580Z,31.93
2019-02-23T23:44:25.119Z,32.03
2019-02-23T23:46:56.530Z,32.08
2019-02-23T23:49:42.713Z,32.15
2019-02-23T23:52:02.877Z,32.30
2019-02-23T23:54:50.856Z,32.17
2019-02-23T23:57:29.564Z,32.29
